Time;durP1;ratioP1;P1;durP2;ratioP2;P2;SDS_P1;SDS_P2;PMS_P1;PMS_P2;Temp;Humidity;BMP_temperature;BMP_pressure;BME280_temperature;BME280_humidity;BME280_pressure;Samples;Min_cycle;Max_cycle;Signal;HPM_P1;HPM_P2
2021/05/04 00:01:57;;;;;;;;;;;19.60;39.40;;;;;;5079857;28;20491;-71
2021/05/04 00:04:24;;;;;;;;;;;19.60;39.50;;;;;;5080169;28;19920;-72
2021/05/04 00:06:51;;;;;;;;;;;19.60;39.40;;;;;;5079766;28;20136;-70
2021/05/04 00:09:18;;;;;;;;;;;19.60;39.50;;;;;;5080255;28;19931;-70
2021/05/04 00:11:44;;;;;;;;;;;19.50;39.40;;;;;;5079726;28;19919;-70
2021/05/04 00:14:10;;;;;;;;;;;19.60;39.40;;;;;;5080193;28;20223;-70
2021/05/04 00:16:36;;;;;;;;;;;19.60;39.40;;;;;;5059292;28;19931;-71
2021/05/04 00:19:02;;;;;;;;;;;19.60;39.50;;;;;;5080285;28;20239;-70
2021/05/04 00:21:29;;;;;;;;;;;19.50;39.50;;;;;;5079832;28;20311;-71
2021/05/04 00:23:55;;;;;;;;;;;19.50;39.50;;;;;;5062052;28;20376;-71
2021/05/04 00:26:22;;;;;;;;;;;19.50;39.50;;;;;;5082026;28;19920;-70
2021/05/04 00:28:48;;;;;;;;;;;19.50;39.50;;;;;;5084211;28;20103;-71
2021/05/04 00:31:14;;;;;;;;;;;19.50;39.60;;;;;;5083246;28;20208;-70
2021/05/04 00:33:40;;;;;;;;;;;19.50;39.80;;;;;;5083179;28;20330;-70
2021/05/04 00:36:07;;;;;;;;;;;19.50;39.90;;;;;;5084195;28;19920;-70
2021/05/04 00:38:33;;;;;;;;;;;19.50;39.80;;;;;;5083568;28;19920;-70
2021/05/04 00:40:59;;;;;;;;;;;19.50;39.70;;;;;;5084014;28;19930;-71
2021/05/04 00:43:28;;;;;;;;;;;19.40;39.80;;;;;;5083439;28;19919;-71
2021/05/04 00:45:54;;;;;;;;;;;19.50;39.90;;;;;;5082758;28;19974;-71
2021/05/04 00:48:21;;;;;;;;;;;19.40;39.80;;;;;;5082920;28;19920;-71
2021/05/04 00:50:47;;;;;;;;;;;19.40;39.90;;;;;;5062929;28;19978;-71
2021/05/04 00:53:13;;;;;;;;;;;19.40;39.90;;;;;;5068193;28;20368;-71
2021/05/04 00:55:40;;;;;;;;;;;19.40;40.00;;;;;;5083204;28;20132;-71
2021/05/04 00:58:08;;;;;;;;;;;19.40;39.90;;;;;;5083815;28;19924;-71
2021/05/04 01:00:34;;;;;;;;;;;19.40;39.90;;;;;;5065060;28;19928;-71
2021/05/04 01:03:00;;;;;;;;;;;19.40;40.00;;;;;;5083321;28;19989;-72
2021/05/04 01:05:26;;;;;;;;;;;19.30;40.10;;;;;;5083485;28;19927;-71
2021/05/04 01:07:53;;;;;;;;;;;19.30;40.10;;;;;;5083261;28;19924;-71
2021/05/04 01:10:19;;;;;;;;;;;19.30;40.20;;;;;;5083377;28;20359;-71
2021/05/04 01:12:45;;;;;;;;;;;19.30;40.20;;;;;;5082965;28;20384;-71
2021/05/04 01:15:11;;;;;;;;;;;19.30;40.40;;;;;;5083559;28;19919;-71
2021/05/04 01:17:37;;;;;;;;;;;19.30;40.50;;;;;;5065150;28;20212;-70
2021/05/04 01:20:04;;;;;;;;;;;19.20;40.50;;;;;;5083457;28;19920;-71
2021/05/04 01:22:31;;;;;;;;;;;19.20;40.50;;;;;;5082757;28;19920;-71
2021/05/04 01:24:57;;;;;;;;;;;19.20;40.70;;;;;;5082832;28;19931;-71
2021/05/04 01:27:23;;;;;;;;;;;19.20;40.70;;;;;;5085870;28;19927;-71
2021/05/04 01:29:49;;;;;;;;;;;19.20;40.90;;;;;;5082392;28;20320;-71
2021/05/04 01:32:16;;;;;;;;;;;19.20;40.90;;;;;;5082639;28;19924;-71
2021/05/04 01:34:42;;;;;;;;;;;19.10;40.90;;;;;;5082719;28;19920;-71
2021/05/04 01:37:08;;;;;;;;;;;19.10;41.10;;;;;;5082113;28;19985;-70
2021/05/04 01:39:46;;;;;;;;;;;19.10;41.10;;;;;;5082194;28;19927;-72
2021/05/04 01:42:14;;;;;;;;;;;19.10;41.20;;;;;;5082086;28;20297;-71
2021/05/04 01:44:40;;;;;;;;;;;19.10;41.20;;;;;;5082117;28;20429;-71
2021/05/04 01:47:07;;;;;;;;;;;19.10;41.20;;;;;;5082487;28;20020;-71
2021/05/04 01:49:34;;;;;;;;;;;19.10;41.40;;;;;;5082153;28;19920;-71
2021/05/04 01:52:00;;;;;;;;;;;19.10;41.30;;;;;;5082291;28;19970;-72
2021/05/04 01:54:27;;;;;;;;;;;19.00;41.50;;;;;;5082527;28;19927;-72
2021/05/04 01:56:55;;;;;;;;;;;19.10;41.60;;;;;;5078059;28;19928;-72
2021/05/04 01:59:22;;;;;;;;;;;19.00;41.60;;;;;;5067824;28;19955;-71
2021/05/04 02:01:48;;;;;;;;;;;19.00;41.60;;;;;;5081840;28;19920;-72
2021/05/04 02:04:14;;;;;;;;;;;19.10;41.70;;;;;;5082598;28;19926;-71
2021/05/04 02:06:41;;;;;;;;;;;19.00;41.80;;;;;;5064101;28;20220;-71
2021/05/04 02:09:08;;;;;;;;;;;19.00;41.80;;;;;;5082252;28;19920;-71
2021/05/04 02:11:35;;;;;;;;;;;19.00;41.80;;;;;;5063855;28;19978;-72
2021/05/04 02:14:01;;;;;;;;;;;19.00;42.00;;;;;;5082042;28;19943;-72
2021/05/04 02:16:27;;;;;;;;;;;19.00;42.00;;;;;;5079384;28;20220;-71
2021/05/04 02:18:54;;;;;;;;;;;19.00;42.10;;;;;;5081750;28;19919;-72
2021/05/04 02:21:20;;;;;;;;;;;19.00;42.10;;;;;;5051686;28;19990;-72
2021/05/04 02:23:47;;;;;;;;;;;18.90;42.10;;;;;;5061176;28;20189;-71
2021/05/04 02:26:16;;;;;;;;;;;18.90;42.20;;;;;;5061669;28;19921;-71
2021/05/04 02:28:42;;;;;;;;;;;18.90;42.30;;;;;;5043710;28;19927;-71
2021/05/04 02:31:08;;;;;;;;;;;18.90;42.40;;;;;;5079518;28;19926;-72
2021/05/04 02:33:35;;;;;;;;;;;18.90;42.50;;;;;;5080814;28;19928;-71
2021/05/04 02:36:03;;;;;;;;;;;18.90;42.50;;;;;;5082019;28;19920;-72
2021/05/04 02:38:31;;;;;;;;;;;18.90;42.40;;;;;;5081948;28;19920;-72
2021/05/04 02:40:58;;;;;;;;;;;18.90;42.50;;;;;;5081593;28;19920;-71
2021/05/04 02:43:24;;;;;;;;;;;18.90;42.70;;;;;;5081971;28;19924;-72
2021/05/04 02:45:51;;;;;;;;;;;18.90;42.60;;;;;;5062296;28;20005;-72
2021/05/04 02:48:17;;;;;;;;;;;18.80;42.90;;;;;;5042669;28;20209;-71
2021/05/04 02:50:44;;;;;;;;;;;18.80;42.90;;;;;;5061439;28;19969;-71
2021/05/04 02:53:10;;;;;;;;;;;18.80;42.90;;;;;;5061176;28;19924;-71
2021/05/04 02:55:37;;;;;;;;;;;18.80;42.90;;;;;;5061381;28;19924;-72
2021/05/04 02:58:03;;;;;;;;;;;18.80;42.90;;;;;;5054462;28;19975;-71
2021/05/04 03:00:29;;;;;;;;;;;18.80;43.10;;;;;;5041577;28;19928;-71
2021/05/04 03:02:55;;;;;;;;;;;18.80;43.10;;;;;;5041100;28;19928;-72
2021/05/04 03:05:22;;;;;;;;;;;18.80;43.00;;;;;;5059349;28;19924;-72
2021/05/04 03:07:51;;;;;;;;;;;18.80;43.10;;;;;;5063966;28;19920;-72
2021/05/04 03:10:17;;;;;;;;;;;18.80;43.20;;;;;;5061305;28;19927;-71
2021/05/04 03:12:43;;;;;;;;;;;18.80;43.20;;;;;;5060781;28;20111;-72
2021/05/04 03:15:10;;;;;;;;;;;18.80;43.30;;;;;;5061161;28;19928;-72
2021/05/04 03:17:36;;;;;;;;;;;18.80;43.30;;;;;;5060642;28;19931;-71
2021/05/04 03:20:03;;;;;;;;;;;18.70;43.40;;;;;;5060927;28;20360;-72
2021/05/04 03:22:30;;;;;;;;;;;18.70;43.30;;;;;;5060174;28;19947;-71
2021/05/04 03:24:56;;;;;;;;;;;18.70;43.40;;;;;;5060951;28;19994;-72
2021/05/04 03:27:22;;;;;;;;;;;18.70;43.30;;;;;;5060445;28;19954;-72
2021/05/04 03:29:48;;;;;;;;;;;18.70;43.30;;;;;;5061685;28;20224;-71
2021/05/04 03:32:14;;;;;;;;;;;18.70;43.50;;;;;;5060806;28;20672;-71
2021/05/04 03:34:41;;;;;;;;;;;18.70;43.40;;;;;;5060341;28;19927;-72
2021/05/04 03:37:09;;;;;;;;;;;18.70;43.50;;;;;;5060813;28;19920;-71
2021/05/04 03:39:35;;;;;;;;;;;18.70;43.60;;;;;;5044286;28;19944;-72
2021/05/04 03:42:02;;;;;;;;;;;18.70;43.60;;;;;;5040628;28;20118;-71
2021/05/04 03:44:28;;;;;;;;;;;18.70;43.50;;;;;;5059093;28;20533;-72
2021/05/04 03:46:54;;;;;;;;;;;18.70;43.50;;;;;;5080485;28;19919;-72
2021/05/04 03:49:20;;;;;;;;;;;18.70;43.60;;;;;;5081132;28;20603;-71
2021/05/04 03:51:46;;;;;;;;;;;18.70;43.60;;;;;;5080892;28;20372;-71
2021/05/04 03:54:12;;;;;;;;;;;18.70;43.50;;;;;;5081273;28;19955;-71
2021/05/04 03:56:39;;;;;;;;;;;18.70;43.60;;;;;;5079903;28;20251;-71
2021/05/04 03:59:05;;;;;;;;;;;18.60;43.60;;;;;;5081027;28;19927;-72
2021/05/04 04:01:31;;;;;;;;;;;18.60;43.70;;;;;;5066256;28;20038;-71
2021/05/04 04:03:57;;;;;;;;;;;18.60;43.70;;;;;;5083430;28;20375;-71
2021/05/04 04:06:23;;;;;;;;;;;18.60;43.70;;;;;;5086982;28;20196;-72
2021/05/04 04:08:50;;;;;;;;;;;18.60;43.70;;;;;;5085466;28;19985;-71
2021/05/04 04:11:16;;;;;;;;;;;18.60;43.70;;;;;;5085626;28;20474;-72
2021/05/04 04:13:43;;;;;;;;;;;18.60;43.80;;;;;;5085047;28;20354;-72
2021/05/04 04:16:09;;;;;;;;;;;18.60;43.80;;;;;;5090727;28;20503;-72
2021/05/04 04:18:35;;;;;;;;;;;18.60;43.80;;;;;;5085830;28;19946;-72
2021/05/04 04:21:01;;;;;;;;;;;18.60;43.90;;;;;;5098357;28;20038;-71
2021/05/04 04:23:27;;;;;;;;;;;18.60;43.80;;;;;;5077160;28;19920;-71
2021/05/04 04:25:55;;;;;;;;;;;18.60;43.90;;;;;;5093286;28;19973;-71
2021/05/04 04:28:21;;;;;;;;;;;18.60;44.00;;;;;;5103283;28;19920;-71
2021/05/04 04:30:50;;;;;;;;;;;18.60;44.00;;;;;;5092023;28;20419;-71
2021/05/04 04:33:23;;;;;;;;;;;18.50;44.00;;;;;;5084070;28;20323;-71
2021/05/04 04:35:50;;;;;;;;;;;18.50;44.00;;;;;;5064814;28;20292;-72
2021/05/04 04:38:16;;;;;;;;;;;18.50;44.10;;;;;;5082050;28;19920;-71
2021/05/04 04:40:43;;;;;;;;;;;18.60;44.10;;;;;;5088868;28;19994;-71
2021/05/04 04:43:10;;;;;;;;;;;18.50;44.10;;;;;;5085767;28;20657;-72
2021/05/04 04:45:36;;;;;;;;;;;18.50;44.20;;;;;;5084115;28;19947;-71
2021/05/04 04:48:02;;;;;;;;;;;18.50;44.20;;;;;;5084131;28;19920;-72
2021/05/04 04:50:29;;;;;;;;;;;18.50;44.30;;;;;;5084847;28;19927;-71
2021/05/04 04:52:55;;;;;;;;;;;18.60;44.60;;;;;;5084679;28;19924;-72
2021/05/04 04:55:21;;;;;;;;;;;18.60;44.30;;;;;;5084531;28;19927;-71
2021/05/04 04:57:47;;;;;;;;;;;18.60;44.60;;;;;;5084191;28;19924;-71
2021/05/04 05:00:13;;;;;;;;;;;18.50;44.50;;;;;;5084302;28;19947;-71
2021/05/04 05:02:39;;;;;;;;;;;18.60;44.40;;;;;;5083951;28;19924;-71
2021/05/04 05:05:06;;;;;;;;;;;18.60;44.30;;;;;;5084067;28;20374;-72
2021/05/04 05:07:32;;;;;;;;;;;18.50;44.50;;;;;;5083840;28;19920;-71
2021/05/04 05:09:58;;;;;;;;;;;18.60;44.50;;;;;;5084061;28;20673;-71
2021/05/04 05:12:26;;;;;;;;;;;18.50;44.50;;;;;;5064886;28;19920;-71
2021/05/04 05:14:53;;;;;;;;;;;18.50;44.60;;;;;;5084130;28;19931;-71
2021/05/04 05:17:19;;;;;;;;;;;18.50;44.70;;;;;;5083373;28;19920;-71
2021/05/04 05:19:46;;;;;;;;;;;18.50;44.60;;;;;;5083838;28;19935;-71
2021/05/04 05:22:12;;;;;;;;;;;18.60;44.60;;;;;;5065820;28;19990;-71
2021/05/04 05:24:38;;;;;;;;;;;18.50;44.60;;;;;;5083276;28;19966;-72
2021/05/04 05:27:05;;;;;;;;;;;18.50;44.40;;;;;;5083831;28;19920;-72
2021/05/04 05:29:33;;;;;;;;;;;18.60;44.70;;;;;;5083521;28;19927;-72
2021/05/04 05:32:01;;;;;;;;;;;18.60;44.60;;;;;;5083434;28;19924;-72
2021/05/04 05:34:27;;;;;;;;;;;18.60;44.60;;;;;;5085757;28;19920;-71
2021/05/04 05:36:53;;;;;;;;;;;18.60;44.70;;;;;;5083426;28;19920;-71
2021/05/04 05:39:20;;;;;;;;;;;18.60;44.80;;;;;;5083452;28;19924;-71
2021/05/04 05:41:47;;;;;;;;;;;18.60;44.60;;;;;;5082918;28;20419;-71
2021/05/04 05:44:14;;;;;;;;;;;18.60;44.70;;;;;;5083299;28;19973;-71
2021/05/04 05:46:40;;;;;;;;;;;18.60;44.50;;;;;;5082545;28;19923;-70
2021/05/04 05:49:06;;;;;;;;;;;18.60;44.40;;;;;;5082772;28;19931;-71
2021/05/04 05:51:33;;;;;;;;;;;18.70;44.50;;;;;;5081992;28;19968;-71
2021/05/04 05:53:59;;;;;;;;;;;18.70;44.40;;;;;;5082659;28;20156;-71
2021/05/04 05:56:25;;;;;;;;;;;18.70;45.20;;;;;;5082642;28;19920;-71
2021/05/04 05:58:51;;;;;;;;;;;18.70;44.40;;;;;;5062460;28;19920;-71
2021/05/04 06:01:17;;;;;;;;;;;18.60;44.60;;;;;;5062168;28;19920;-71
2021/05/04 06:03:44;;;;;;;;;;;18.70;44.60;;;;;;5060913;28;19928;-71
2021/05/04 06:06:10;;;;;;;;;;;18.70;44.60;;;;;;5062467;28;20218;-72
2021/05/04 06:08:36;;;;;;;;;;;18.70;44.70;;;;;;5080235;28;19996;-71
2021/05/04 06:11:02;;;;;;;;;;;18.70;44.90;;;;;;5081565;28;19920;-71
2021/05/04 06:13:28;;;;;;;;;;;18.70;45.00;;;;;;5081150;28;19920;-72
2021/05/04 06:15:54;;;;;;;;;;;18.70;45.00;;;;;;5073410;28;19920;-71
2021/05/04 06:18:21;;;;;;;;;;;18.70;45.40;;;;;;5076552;28;19976;-70
2021/05/04 06:20:47;;;;;;;;;;;18.70;45.10;;;;;;5080183;28;19924;-70
2021/05/04 06:23:13;;;;;;;;;;;18.80;45.20;;;;;;5079013;28;19920;-70
2021/05/04 06:25:40;;;;;;;;;;;18.80;45.20;;;;;;5079756;28;20469;-70
2021/05/04 06:28:08;;;;;;;;;;;18.70;45.10;;;;;;5080009;28;20313;-72
2021/05/04 06:30:36;;;;;;;;;;;18.70;45.20;;;;;;5080941;28;19924;-71
2021/05/04 06:33:05;;;;;;;;;;;18.70;45.40;;;;;;5081270;28;19920;-70
2021/05/04 06:35:33;;;;;;;;;;;18.70;46.90;;;;;;5080502;28;19949;-71
2021/05/04 06:37:59;;;;;;;;;;;18.70;47.70;;;;;;5063909;28;19920;-71
2021/05/04 06:40:25;;;;;;;;;;;18.70;47.70;;;;;;5081327;28;19978;-72
2021/05/04 06:42:52;;;;;;;;;;;18.70;47.10;;;;;;5081381;28;19927;-71
2021/05/04 06:45:18;;;;;;;;;;;18.70;46.80;;;;;;5070931;28;19920;-71
2021/05/04 06:47:44;;;;;;;;;;;18.70;46.30;;;;;;5073283;28;20419;-72
2021/05/04 06:50:10;;;;;;;;;;;18.90;46.10;;;;;;5071010;28;20025;-71
2021/05/04 06:52:36;;;;;;;;;;;19.00;46.00;;;;;;5079394;28;20528;-71
2021/05/04 06:55:03;;;;;;;;;;;19.10;45.90;;;;;;5082095;28;19928;-71
2021/05/04 06:57:30;;;;;;;;;;;19.20;45.80;;;;;;5080057;28;20232;-71
2021/05/04 06:59:56;;;;;;;;;;;19.20;45.60;;;;;;5083793;28;19924;-71
2021/05/04 07:02:23;;;;;;;;;;;19.30;45.80;;;;;;5088253;28;19923;-71
2021/05/04 07:04:49;;;;;;;;;;;19.30;45.60;;;;;;5087570;28;20162;-72
2021/05/04 07:07:15;;;;;;;;;;;19.40;45.50;;;;;;5087696;28;19932;-72
2021/05/04 07:09:42;;;;;;;;;;;19.40;45.70;;;;;;5088936;28;19928;-70
2021/05/04 07:12:10;;;;;;;;;;;19.40;45.90;;;;;;5093461;28;19920;-71
2021/05/04 07:14:38;;;;;;;;;;;19.50;46.10;;;;;;5070748;28;19920;-70
2021/05/04 07:17:05;;;;;;;;;;;19.60;46.50;;;;;;5081835;28;19928;-72
2021/05/04 07:19:32;;;;;;;;;;;19.60;47.00;;;;;;5074481;28;19932;-72
2021/05/04 07:21:58;;;;;;;;;;;19.60;47.00;;;;;;5077929;28;19924;-73
2021/05/04 07:24:24;;;;;;;;;;;19.70;46.90;;;;;;5084711;28;19924;-72
2021/05/04 07:26:53;;;;;;;;;;;19.90;46.70;;;;;;5035545;28;19931;-72
2021/05/04 07:29:19;;;;;;;;;;;19.90;46.40;;;;;;5077391;28;19920;-73
2021/05/04 07:31:46;;;;;;;;;;;20.00;45.90;;;;;;5071878;28;19927;-72
2021/05/04 07:34:12;;;;;;;;;;;20.00;45.80;;;;;;5078270;28;19920;-72
2021/05/04 07:36:38;;;;;;;;;;;20.00;45.80;;;;;;5077289;28;19927;-71
2021/05/04 07:39:04;;;;;;;;;;;20.00;45.80;;;;;;5074351;28;19923;-71
2021/05/04 07:41:31;;;;;;;;;;;20.00;45.70;;;;;;5080097;28;20325;-72
2021/05/04 07:43:57;;;;;;;;;;;20.00;45.60;;;;;;5082645;28;20023;-71
2021/05/04 07:46:24;;;;;;;;;;;20.00;45.60;;;;;;5076187;28;26898;-71
2021/05/04 07:48:53;;;;;;;;;;;20.10;45.50;;;;;;5086027;28;20186;-71
2021/05/04 07:51:36;;;;;;;;;;;20.20;45.30;;;;;;5083673;28;19928;-72
2021/05/04 07:54:03;;;;;;;;;;;20.20;45.30;;;;;;5056572;28;20324;-72
2021/05/04 07:56:30;;;;;;;;;;;20.20;45.40;;;;;;5057391;28;19991;-73
2021/05/04 07:58:57;;;;;;;;;;;20.10;45.20;;;;;;5084865;28;20256;-72
2021/05/04 08:01:23;;;;;;;;;;;20.10;45.00;;;;;;5084811;28;19928;-71
2021/05/04 08:03:49;;;;;;;;;;;20.10;44.90;;;;;;5082071;28;19930;-78
2021/05/04 08:06:26;;;;;;;;;;;20.10;45.30;;;;;;5061979;28;19939;-79
2021/05/04 08:08:52;;;;;;;;;;;20.00;46.00;;;;;;5082908;28;19924;-77
2021/05/04 08:11:18;;;;;;;;;;;19.80;46.10;;;;;;5090424;28;19939;-81
2021/05/04 08:13:45;;;;;;;;;;;19.90;46.60;;;;;;5066513;28;19932;-78
2021/05/04 08:16:13;;;;;;;;;;;19.90;46.60;;;;;;5079794;28;19958;-78
2021/05/04 08:18:42;;;;;;;;;;;19.90;46.30;;;;;;5046541;28;19928;-77
2021/05/04 08:21:08;;;;;;;;;;;20.00;46.00;;;;;;5083395;28;19974;-76
2021/05/04 08:23:34;;;;;;;;;;;20.10;45.70;;;;;;5090062;28;20155;-81
2021/05/04 08:26:01;;;;;;;;;;;20.30;45.50;;;;;;5088210;28;21950;-78
2021/05/04 08:28:27;;;;;;;;;;;20.20;45.50;;;;;;5085870;28;19932;-78
2021/05/04 08:30:54;;;;;;;;;;;20.20;45.40;;;;;;5086995;28;19933;-78
2021/05/04 08:33:20;;;;;;;;;;;20.10;45.50;;;;;;5086456;28;19930;-80
2021/05/04 08:35:46;;;;;;;;;;;20.10;45.60;;;;;;5079261;28;20431;-79
2021/05/04 08:38:13;;;;;;;;;;;20.10;45.50;;;;;;5067367;28;19924;-79
2021/05/04 08:40:40;;;;;;;;;;;20.20;45.40;;;;;;5088415;28;19924;-81
2021/05/04 08:43:06;;;;;;;;;;;20.40;45.10;;;;;;5088153;28;19932;-84
2021/05/04 08:45:33;;;;;;;;;;;20.50;45.10;;;;;;5103908;28;19925;-78
2021/05/04 08:48:02;;;;;;;;;;;20.50;45.20;;;;;;5089101;28;19928;-80
2021/05/04 08:50:30;;;;;;;;;;;20.30;45.20;;;;;;5073856;28;19981;-78
2021/05/04 08:52:56;;;;;;;;;;;20.30;45.00;;;;;;5081254;28;19951;-77
2021/05/04 08:55:23;;;;;;;;;;;20.30;45.00;;;;;;5073991;28;19923;-78
2021/05/04 08:57:50;;;;;;;;;;;20.10;45.70;;;;;;5075663;28;19935;-77
2021/05/04 09:00:21;;;;;;;;;;;20.10;45.50;;;;;;5077382;28;19931;-81
2021/05/04 09:05:37;;;;;;;;;;;20.20;45.20;;;;;;5095048;27;20605;-78
2021/05/04 09:08:08;;;;;;;;;;;20.30;45.20;;;;;;5088093;28;19950;-78
2021/05/04 09:10:55;;;;;;;;;;;20.30;45.00;;;;;;5089029;28;20946;-80
2021/05/04 09:13:34;;;;;;;;;;;20.30;44.90;;;;;;5057820;28;20956;-79
2021/05/04 09:16:30;;;;;;;;;;;20.60;45.90;;;;;;5089518;28;20041;-81
2021/05/04 09:21:38;;;;;;;;;;;20.70;44.70;;;;;;5091962;28;20368;-78
2021/05/04 09:24:24;;;;;;;;;;;20.70;44.90;;;;;;5063197;28;20406;-83
2021/05/04 09:27:02;;;;;;;;;;;20.80;45.60;;;;;;5084028;27;19936;-87
2021/05/04 09:29:37;;;;;;;;;;;21.00;45.10;;;;;;5092761;28;20439;-83
2021/05/04 09:32:07;;;;;;;;;;;21.30;44.90;;;;;;5068428;28;20307;-83
2021/05/04 09:34:49;;;;;;;;;;;21.30;44.90;;;;;;5084015;28;20295;-85
2021/05/04 09:37:21;;;;;;;;;;;21.40;46.30;;;;;;5089048;28;19931;-84
2021/05/04 09:39:47;;;;;;;;;;;21.60;45.50;;;;;;5080273;28;19947;-83
2021/05/04 09:42:14;;;;;;;;;;;21.50;46.10;;;;;;5080353;28;19934;-87
2021/05/04 09:44:46;;;;;;;;;;;21.30;48.00;;;;;;5109664;27;19959;-85
2021/05/04 09:47:18;;;;;;;;;;;21.10;48.50;;;;;;5067245;28;19928;-85
2021/05/04 09:49:47;;;;;;;;;;;21.00;48.40;;;;;;5058983;28;19925;-87
2021/05/04 09:52:19;;;;;;;;;;;21.00;48.20;;;;;;5066576;28;20206;-88
2021/05/04 09:54:50;;;;;;;;;;;21.10;48.10;;;;;;5067921;28;19929;-87
2021/05/04 09:57:29;;;;;;;;;;;21.10;48.20;;;;;;5050275;28;19939;-85
2021/05/04 10:00:04;;;;;;;;;;;20.90;48.60;;;;;;5071673;28;20599;-86
2021/05/04 10:02:31;;;;;;;;;;;20.90;49.30;;;;;;5063954;28;21128;-84
2021/05/04 10:04:59;;;;;;;;;;;20.80;48.90;;;;;;5044538;28;19935;-85
2021/05/04 10:07:27;;;;;;;;;;;20.80;48.60;;;;;;5079243;28;19928;-80
2021/05/04 10:09:54;;;;;;;;;;;20.90;48.00;;;;;;5068124;28;19925;-86
2021/05/04 10:12:35;;;;;;;;;;;21.00;47.90;;;;;;5037673;28;19931;-83
2021/05/04 10:15:07;;;;;;;;;;;20.90;48.80;;;;;;5056515;28;19974;-83
2021/05/04 10:17:39;;;;;;;;;;;21.20;48.60;;;;;;5095783;28;20292;-80
2021/05/04 10:20:09;;;;;;;;;;;21.40;48.50;;;;;;5056440;28;20224;-81
2021/05/04 10:22:36;;;;;;;;;;;21.60;48.80;;;;;;5075658;28;19932;-77
2021/05/04 10:25:08;;;;;;;;;;;21.60;49.20;;;;;;5059658;28;19932;-82
2021/05/04 10:27:36;;;;;;;;;;;21.60;48.60;;;;;;5068410;28;20220;-86
2021/05/04 10:30:11;;;;;;;;;;;21.40;49.50;;;;;;5069809;28;20562;-78
2021/05/04 10:32:49;;;;;;;;;;;21.20;48.60;;;;;;5070468;28;19932;-81
2021/05/04 10:35:46;;;;;;;;;;;21.10;49.40;;;;;;5050377;28;19943;-81
2021/05/04 10:38:13;;;;;;;;;;;21.00;49.90;;;;;;5053090;28;20553;-82
2021/05/04 10:40:41;;;;;;;;;;;21.00;49.90;;;;;;5030096;28;19924;-82
2021/05/04 10:43:23;;;;;;;;;;;21.10;49.60;;;;;;5072892;28;19986;-82
2021/05/04 10:45:51;;;;;;;;;;;21.10;49.30;;;;;;5085102;28;19991;-82
2021/05/04 10:48:35;;;;;;;;;;;21.20;49.00;;;;;;5071739;28;20005;-79
2021/05/04 10:51:02;;;;;;;;;;;21.20;49.10;;;;;;5068431;28;20162;-80
2021/05/04 10:53:48;;;;;;;;;;;21.20;48.50;;;;;;5096687;28;19959;-84
2021/05/04 10:56:16;;;;;;;;;;;21.30;48.50;;;;;;5081828;28;20498;-82
2021/05/04 10:58:43;;;;;;;;;;;21.30;48.80;;;;;;5081754;28;20394;-82
2021/05/04 11:01:10;;;;;;;;;;;21.20;48.60;;;;;;5091074;28;20171;-84
2021/05/04 11:03:39;;;;;;;;;;;21.10;49.10;;;;;;5078867;28;19928;-83
2021/05/04 11:06:05;;;;;;;;;;;21.10;49.00;;;;;;5093822;28;19912;-78
2021/05/04 11:08:54;;;;;;;;;;;21.00;49.30;;;;;;5091926;28;19931;-80
2021/05/04 11:11:35;;;;;;;;;;;20.90;50.10;;;;;;5047089;28;20966;-80
2021/05/04 11:14:14;;;;;;;;;;;20.80;50.50;;;;;;5089771;28;19932;-79
2021/05/04 11:16:47;;;;;;;;;;;20.90;50.20;;;;;;5089047;28;20916;-80
2021/05/04 11:19:16;;;;;;;;;;;21.20;50.80;;;;;;5089719;28;19993;-78
2021/05/04 11:22:04;;;;;;;;;;;21.20;49.60;;;;;;5078610;28;19927;-85
2021/05/04 11:24:35;;;;;;;;;;;21.30;49.70;;;;;;5091757;28;21613;-85
2021/05/04 11:27:09;;;;;;;;;;;21.30;49.10;;;;;;5087676;28;19924;-80
2021/05/04 11:29:37;;;;;;;;;;;21.20;49.00;;;;;;5091683;28;20265;-83
2021/05/04 11:32:13;;;;;;;;;;;21.30;48.80;;;;;;5090913;28;19912;-84
2021/05/04 11:34:55;;;;;;;;;;;21.20;50.00;;;;;;5072834;28;19951;-80
2021/05/04 11:37:22;;;;;;;;;;;21.30;48.70;;;;;;5079059;28;19928;-79
2021/05/04 11:40:02;;;;;;;;;;;21.50;49.40;;;;;;5099836;28;19924;-86
2021/05/04 11:42:36;;;;;;;;;;;21.70;48.30;;;;;;5089784;28;19913;-86
2021/05/04 11:45:18;;;;;;;;;;;21.70;48.40;;;;;;5053066;28;19924;-81
2021/05/04 11:48:03;;;;;;;;;;;21.70;48.00;;;;;;5088249;28;19924;-87
2021/05/04 11:50:32;;;;;;;;;;;21.80;49.50;;;;;;5081879;28;19948;-84
2021/05/04 11:53:09;;;;;;;;;;;21.80;48.60;;;;;;5102455;28;19931;-84
2021/05/04 11:55:58;;;;;;;;;;;21.80;48.10;;;;;;5091010;28;19964;-83
2021/05/04 11:58:28;;;;;;;;;;;21.90;47.60;;;;;;5050648;28;20355;-76
2021/05/04 12:00:55;;;;;;;;;;;21.50;45.20;;;;;;5083757;28;20347;-76
2021/05/04 12:03:21;;;;;;;;;;;20.50;45.60;;;;;;5087357;28;20392;-77
2021/05/04 12:05:47;;;;;;;;;;;20.40;46.60;;;;;;5085148;28;20179;-79
2021/05/04 12:08:14;;;;;;;;;;;20.30;46.10;;;;;;5087106;28;19928;-77
2021/05/04 12:10:42;;;;;;;;;;;20.20;46.90;;;;;;5086602;28;19974;-78
2021/05/04 12:13:10;;;;;;;;;;;20.30;45.30;;;;;;5087790;28;19935;-77
2021/05/04 12:15:43;;;;;;;;;;;20.40;45.40;;;;;;5084498;28;20376;-77
2021/05/04 12:18:29;;;;;;;;;;;20.40;44.40;;;;;;5086926;28;20335;-78
2021/05/04 12:20:57;;;;;;;;;;;20.00;44.40;;;;;;5080342;28;19928;-74
2021/05/04 12:23:30;;;;;;;;;;;19.60;46.30;;;;;;5079119;28;19924;-75
2021/05/04 12:26:01;;;;;;;;;;;19.60;45.60;;;;;;5072800;28;19959;-77
2021/05/04 12:28:32;;;;;;;;;;;19.20;46.00;;;;;;5081880;28;19932;-77
2021/05/04 12:31:04;;;;;;;;;;;19.00;46.80;;;;;;5078385;28;19925;-76
2021/05/04 12:33:30;;;;;;;;;;;17.90;50.60;;;;;;5082089;28;19924;-75
2021/05/04 12:36:03;;;;;;;;;;;17.80;51.70;;;;;;5084889;28;19932;-76
2021/05/04 12:38:36;;;;;;;;;;;17.70;52.10;;;;;;5089924;28;19924;-77
2021/05/04 12:41:08;;;;;;;;;;;17.70;50.20;;;;;;5079756;28;21126;-76
2021/05/04 12:43:37;;;;;;;;;;;17.30;51.60;;;;;;5088805;28;19931;-78
2021/05/04 12:46:09;;;;;;;;;;;17.30;51.20;;;;;;5081739;28;19932;-76
2021/05/04 12:48:39;;;;;;;;;;;17.20;52.50;;;;;;5083225;28;19938;-76
2021/05/04 12:51:10;;;;;;;;;;;17.20;51.10;;;;;;5086892;28;20315;-78
2021/05/04 12:53:38;;;;;;;;;;;17.00;51.70;;;;;;5086655;28;21115;-81
2021/05/04 12:56:08;;;;;;;;;;;17.10;52.60;;;;;;5066082;28;21210;-77
2021/05/04 12:58:52;;;;;;;;;;;17.10;52.10;;;;;;5090596;28;20302;-77
2021/05/04 13:01:18;;;;;;;;;;;17.30;51.00;;;;;;5063057;28;19951;-76
2021/05/04 13:03:53;;;;;;;;;;;17.40;50.80;;;;;;5078480;28;20124;-77
2021/05/04 13:06:24;;;;;;;;;;;17.40;50.40;;;;;;5057799;28;20069;-76
2021/05/04 13:08:52;;;;;;;;;;;17.40;50.00;;;;;;5079162;28;19935;-77
2021/05/04 13:11:34;;;;;;;;;;;17.50;49.70;;;;;;5077469;28;19978;-76
2021/05/04 13:14:25;;;;;;;;;;;17.50;49.60;;;;;;5088839;28;20047;-75
2021/05/04 13:17:39;;;;;;;;;;;17.80;50.40;;;;;;5074196;28;21256;-76
2021/05/04 13:31:02;;;;;;;;;;;18.20;49.80;;;;;;5074719;28;21082;-79
2021/05/04 13:33:29;;;;;;;;;;;18.40;49.20;;;;;;5087940;28;19931;-79
2021/05/04 13:36:01;;;;;;;;;;;18.60;49.10;;;;;;5086278;28;19977;-79
2021/05/04 13:49:28;;;;;;;;;;;19.00;46.90;;;;;;5079172;28;20331;-79
2021/05/04 13:51:54;;;;;;;;;;;18.90;47.60;;;;;;5076015;28;19939;-79
2021/05/04 13:54:20;;;;;;;;;;;19.10;47.00;;;;;;5093306;28;19931;-79
2021/05/04 13:56:46;;;;;;;;;;;19.20;46.40;;;;;;5088672;28;19928;-79
2021/05/04 13:59:13;;;;;;;;;;;19.30;48.40;;;;;;5086791;28;19932;-78
2021/05/04 14:01:46;;;;;;;;;;;19.50;46.30;;;;;;5088350;28;20453;-78
2021/05/04 14:28:24;;;;;;;;;;;20.20;48.40;;;;;;5083880;28;20406;-79
2021/05/04 14:30:50;;;;;;;;;;;;;;;;;;5085023;28;20425;-80
2021/05/04 14:33:17;;;;;;;;;;;20.10;49.50;;;;;;5076278;28;19936;-71
2021/05/04 14:35:46;;;;;;;;;;;20.10;48.70;;;;;;5061742;28;19959;-73
2021/05/04 14:43:36;;;;;;;;;;;19.80;47.80;;;;;;5083405;28;19928;-73
2021/05/04 14:59:13;;;;;;;;;;;18.70;51.80;;;;;;5084132;28;20396;-72
2021/05/04 15:01:46;;;;;;;;;;;18.90;51.30;;;;;;5081854;28;19935;-71
2021/05/04 15:04:16;;;;;;;;;;;19.20;50.00;;;;;;5079837;28;20268;-72
2021/05/04 15:06:43;;;;;;;;;;;19.50;50.30;;;;;;5081518;28;19927;-72
2021/05/04 15:09:10;;;;;;;;;;;19.60;51.40;;;;;;5066889;28;19935;-74
2021/05/04 15:11:42;;;;;;;;;;;19.60;51.10;;;;;;5068013;28;20292;-73
2021/05/04 15:17:11;;;;;;;;;;;19.70;51.50;;;;;;5080603;28;19924;-74
2021/05/04 15:22:22;;;;;;;;;;;19.80;51.50;;;;;;5078304;28;19924;-74
2021/05/04 15:24:49;;;;;;;;;;;19.90;51.90;;;;;;5085339;28;20199;-74
2021/05/04 15:27:15;;;;;;;;;;;19.80;51.10;;;;;;5082645;28;19932;-74
2021/05/04 15:29:42;;;;;;;;;;;20.10;51.10;;;;;;5081718;28;19928;-74
2021/05/04 15:32:22;;;;;;;;;;;20.10;50.80;;;;;;5083707;28;19932;-76
2021/05/04 15:34:49;;;;;;;;;;;20.20;50.20;;;;;;5082571;28;19931;-76
2021/05/04 15:37:15;;;;;;;;;;;20.20;50.40;;;;;;5084052;28;19977;-72
2021/05/04 15:39:42;;;;;;;;;;;20.40;50.00;;;;;;5082636;28;20430;-74
2021/05/04 15:42:08;;;;;;;;;;;20.40;49.80;;;;;;5069083;28;19924;-73
2021/05/04 15:44:35;;;;;;;;;;;20.20;49.90;;;;;;5082192;28;19928;-73